createdAt,value
2019-02-19T00:01:39.072Z,20.03
2019-02-19T00:04:08.245Z,21.20
2019-02-19T00:06:36.246Z,19.90
2019-02-19T00:09:05.068Z,18.80
2019-02-19T00:11:34.547Z,19.57
2019-02-19T00:14:11.752Z,20.93
2019-02-19T00:16:40.204Z,20.17
2019-02-19T00:19:08.198Z,21.10
2019-02-19T00:21:36.253Z,21.00
2019-02-19T00:24:07.283Z,20.17
2019-02-19T00:26:35.346Z,20.33
2019-02-19T00:29:03.370Z,20.93
2019-02-19T00:31:31.393Z,20.27
2019-02-19T00:33:59.389Z,21.13
2019-02-19T00:36:27.810Z,19.43
2019-02-19T00:38:55.866Z,21.30
2019-02-19T00:41:23.840Z,21.53
2019-02-19T00:43:51.914Z,19.40
2019-02-19T00:46:21.093Z,20.90
2019-02-19T00:48:49.154Z,19.87
2019-02-19T00:51:17.639Z,19.10
2019-02-19T00:53:45.984Z,20.07
2019-02-19T00:56:14.089Z,19.97
2019-02-19T00:58:42.137Z,21.17
2019-02-19T01:01:10.112Z,19.90
2019-02-19T01:03:38.121Z,19.70
2019-02-19T01:06:06.155Z,21.53
2019-02-19T01:08:34.132Z,21.67
2019-02-19T01:11:02.179Z,20.37
2019-02-19T01:13:30.265Z,20.93
2019-02-19T01:15:58.376Z,19.47
2019-02-19T01:18:26.358Z,21.07
2019-02-19T01:20:54.700Z,20.50
2019-02-19T01:23:22.722Z,20.37
2019-02-19T01:25:50.766Z,20.47
2019-02-19T01:28:18.867Z,21.20
2019-02-19T01:30:46.964Z,18.97
2019-02-19T01:33:15.016Z,19.23
2019-02-19T01:35:43.021Z,19.53
2019-02-19T01:38:11.053Z,19.00
2019-02-19T01:40:39.067Z,20.00
2019-02-19T01:43:07.117Z,20.13
2019-02-19T01:45:35.085Z,20.43
2019-02-19T01:48:04.105Z,18.87
2019-02-19T01:50:32.106Z,20.17
2019-02-19T01:53:00.150Z,19.17
2019-02-19T01:55:28.187Z,20.77
2019-02-19T01:57:58.688Z,19.33
2019-02-19T02:00:26.679Z,19.07
2019-02-19T02:02:54.657Z,18.97
2019-02-19T02:05:22.643Z,18.27
2019-02-19T02:07:50.692Z,19.43
2019-02-19T02:10:18.683Z,18.37
2019-02-19T02:12:46.699Z,19.77
2019-02-19T02:15:14.862Z,19.77
2019-02-19T02:17:42.895Z,19.37
2019-02-19T02:20:10.955Z,18.73
2019-02-19T02:22:38.952Z,17.17
2019-02-19T02:25:07.050Z,20.00
2019-02-19T02:27:35.036Z,18.07
2019-02-19T02:30:03.125Z,18.03
2019-02-19T02:32:31.096Z,17.67
2019-02-19T02:34:59.151Z,16.60
2019-02-19T02:37:27.897Z,16.57
2019-02-19T02:39:56.668Z,18.60
2019-02-19T02:42:24.719Z,17.13
2019-02-19T02:44:52.814Z,18.87
2019-02-19T02:47:20.815Z,17.73
2019-02-19T02:49:48.802Z,16.87
2019-02-19T02:52:16.827Z,18.47
2019-02-19T02:54:44.795Z,17.67
2019-02-19T02:57:12.831Z,17.60
2019-02-19T02:59:40.895Z,17.00
2019-02-19T03:02:08.957Z,17.60
2019-02-19T03:04:36.986Z,18.23
2019-02-19T03:07:30.138Z,16.43
2019-02-19T03:09:58.199Z,17.00
2019-02-19T03:12:26.261Z,17.30
2019-02-19T03:14:54.293Z,17.73
2019-02-19T03:17:22.318Z,16.87
2019-02-19T03:19:50.360Z,17.03
2019-02-19T03:22:18.433Z,17.50
2019-02-19T03:24:46.424Z,17.17
2019-02-19T03:27:14.539Z,15.93
2019-02-19T03:29:42.951Z,17.30
2019-02-19T03:32:10.998Z,16.37
2019-02-19T03:34:39.052Z,18.00
2019-02-19T03:37:07.083Z,18.03
2019-02-19T03:39:35.188Z,16.93
2019-02-19T03:42:03.159Z,15.43
2019-02-19T03:44:31.232Z,15.87
2019-02-19T03:46:59.339Z,16.50
2019-02-19T03:49:27.371Z,16.13
2019-02-19T03:51:55.431Z,15.33
2019-02-19T03:54:23.499Z,15.43
2019-02-19T03:56:51.510Z,16.60
2019-02-19T03:59:19.552Z,16.60
2019-02-19T04:01:47.737Z,17.70
2019-02-19T04:04:15.817Z,17.20
2019-02-19T04:06:43.798Z,17.90
2019-02-19T04:09:11.813Z,18.67
2019-02-19T04:11:39.844Z,17.40
2019-02-19T04:14:07.874Z,17.90
2019-02-19T04:16:35.863Z,18.17
2019-02-19T04:19:03.886Z,19.50
2019-02-19T04:21:31.854Z,18.10
2019-02-19T04:23:59.835Z,18.90
2019-02-19T04:26:28.876Z,18.07
2019-02-19T04:28:57.140Z,18.73
2019-02-19T04:31:25.133Z,20.10
2019-02-19T04:33:53.118Z,18.37
2019-02-19T04:36:21.344Z,19.30
2019-02-19T04:38:49.331Z,18.80
2019-02-19T04:41:17.440Z,19.00
2019-02-19T04:43:45.471Z,19.03
2019-02-19T04:46:13.492Z,18.90
2019-02-19T04:48:41.553Z,20.83
2019-02-19T04:51:09.552Z,18.70
2019-02-19T04:53:37.563Z,18.30
2019-02-19T04:56:05.646Z,17.53
2019-02-19T04:58:33.657Z,21.27
2019-02-19T05:01:01.713Z,19.63
2019-02-19T05:03:29.875Z,19.07
2019-02-19T05:05:57.885Z,19.73
2019-02-19T05:08:26.012Z,17.63
2019-02-19T05:10:54.055Z,19.07
2019-02-19T05:13:22.126Z,18.47
2019-02-19T05:15:50.328Z,19.17
2019-02-19T05:18:18.371Z,18.63
2019-02-19T05:20:46.407Z,18.07
2019-02-19T05:23:14.410Z,20.00
2019-02-19T05:25:42.420Z,21.93
2019-02-19T05:28:10.454Z,18.33
2019-02-19T05:30:38.490Z,17.60
2019-02-19T05:33:06.536Z,19.40
2019-02-19T05:35:34.558Z,20.00
2019-02-19T05:38:02.609Z,17.60
2019-02-19T05:40:30.726Z,19.03
2019-02-19T05:42:58.792Z,19.43
2019-02-19T05:45:26.932Z,18.63
2019-02-19T05:47:55.013Z,20.32
2019-02-19T05:50:23.027Z,19.17
2019-02-19T05:52:51.550Z,19.33
2019-02-19T05:55:19.629Z,20.17
2019-02-19T05:57:47.979Z,19.07
2019-02-19T06:00:16.083Z,17.07
2019-02-19T06:02:44.164Z,18.17
2019-02-19T06:05:12.383Z,18.27
2019-02-19T06:07:40.448Z,19.50
2019-02-19T06:10:09.555Z,18.00
2019-02-19T06:12:37.603Z,19.07
2019-02-19T06:15:06.111Z,17.93
2019-02-19T06:17:34.138Z,20.62
2019-02-19T06:20:02.210Z,18.73
2019-02-19T06:22:30.262Z,19.47
2019-02-19T06:24:58.701Z,17.77
2019-02-19T06:27:27.193Z,19.85
2019-02-19T06:29:55.352Z,17.90
2019-02-19T06:32:23.747Z,18.10
2019-02-19T06:34:51.782Z,18.17
2019-02-19T06:37:19.822Z,20.53
2019-02-19T06:39:48.383Z,20.25
2019-02-19T06:42:16.754Z,17.10
2019-02-19T06:44:45.082Z,19.23
2019-02-19T06:47:13.118Z,18.43
2019-02-19T06:49:41.170Z,21.27
2019-02-19T06:52:09.196Z,20.03
2019-02-19T06:54:37.224Z,20.45
2019-02-19T06:57:06.365Z,19.27
2019-02-19T06:59:35.451Z,16.77
2019-02-19T07:02:21.196Z,16.83
2019-02-19T07:04:56.993Z,16.27
2019-02-19T07:07:24.998Z,15.23
2019-02-19T07:09:53.059Z,14.20
2019-02-19T07:12:21.289Z,14.47
2019-02-19T07:14:49.474Z,13.20
2019-02-19T07:17:17.541Z,14.23
2019-02-19T07:19:45.655Z,13.97
2019-02-19T07:22:13.718Z,13.47
2019-02-19T07:24:41.990Z,13.20
2019-02-19T07:27:10.114Z,14.50
2019-02-19T07:29:38.153Z,13.33
2019-02-19T07:32:06.192Z,14.60
2019-02-19T07:34:34.190Z,12.73
2019-02-19T07:37:02.189Z,13.07
2019-02-19T07:39:30.364Z,13.70
2019-02-19T07:41:58.421Z,12.60
2019-02-19T07:44:26.410Z,14.77
2019-02-19T07:46:54.438Z,12.37
2019-02-19T07:49:23.179Z,13.55
2019-02-19T07:51:51.379Z,12.77
2019-02-19T07:54:19.422Z,12.33
2019-02-19T07:56:47.566Z,12.67
2019-02-19T07:59:15.720Z,13.10
2019-02-19T08:01:43.778Z,13.23
2019-02-19T08:04:11.797Z,13.33
2019-02-19T08:06:39.842Z,13.90
2019-02-19T08:09:11.345Z,13.37
2019-02-19T08:11:39.398Z,13.73
2019-02-19T08:14:07.600Z,12.20
2019-02-19T08:16:36.058Z,14.13
2019-02-19T08:19:04.181Z,12.50
2019-02-19T08:21:32.424Z,13.23
2019-02-19T08:24:00.481Z,14.83
2019-02-19T08:26:28.590Z,13.73
2019-02-19T08:29:06.927Z,15.53
2019-02-19T08:31:26.219Z,14.93
2019-02-19T08:33:54.267Z,14.93
2019-02-19T08:36:22.236Z,14.20
2019-02-19T08:38:50.285Z,15.30
2019-02-19T08:41:18.310Z,14.97
2019-02-19T08:43:46.331Z,14.37
2019-02-19T08:46:15.053Z,15.50
2019-02-19T08:48:43.159Z,15.07
2019-02-19T08:51:11.261Z,16.83
2019-02-19T08:53:39.328Z,15.03
2019-02-19T08:56:07.510Z,15.43
2019-02-19T08:58:35.527Z,16.40
2019-02-19T09:01:03.638Z,16.03
2019-02-19T09:03:31.597Z,15.43
2019-02-19T09:06:00.263Z,16.20
2019-02-19T09:08:28.337Z,18.20
2019-02-19T09:10:56.431Z,16.63
2019-02-19T09:13:24.381Z,17.57
2019-02-19T09:15:52.420Z,18.70
2019-02-19T09:18:20.480Z,16.40
2019-02-19T09:20:48.581Z,16.60
2019-02-19T09:23:16.615Z,16.30
2019-02-19T09:25:44.641Z,16.47
2019-02-19T09:28:13.638Z,17.20
2019-02-19T09:30:41.714Z,17.07
2019-02-19T09:33:09.759Z,17.20
2019-02-19T09:35:37.856Z,18.20
2019-02-19T09:38:05.879Z,18.63
2019-02-19T09:40:33.965Z,19.10
2019-02-19T09:43:03.086Z,19.33
2019-02-19T09:45:31.071Z,20.43
2019-02-19T09:48:01.423Z,21.30
2019-02-19T09:50:29.746Z,21.40
2019-02-19T09:53:00.093Z,21.40
2019-02-19T09:55:28.049Z,23.40
2019-02-19T09:57:56.148Z,23.10
2019-02-19T10:00:24.363Z,23.23
2019-02-19T10:02:52.465Z,23.37
2019-02-19T10:05:20.728Z,23.40
2019-02-19T10:07:48.757Z,23.87
2019-02-19T10:10:17.330Z,23.30
2019-02-19T10:12:45.350Z,24.13
2019-02-19T10:15:13.380Z,24.10
2019-02-19T10:17:41.399Z,23.73
2019-02-19T10:20:09.582Z,22.27
2019-02-19T10:22:37.574Z,22.63
2019-02-19T10:25:06.475Z,23.77
2019-02-19T10:27:34.511Z,24.60
2019-02-19T10:30:02.619Z,23.73
2019-02-19T10:32:30.611Z,23.47
2019-02-19T10:34:58.627Z,25.10
2019-02-19T10:37:27.024Z,24.50
2019-02-19T10:39:55.134Z,23.73
2019-02-19T10:42:23.208Z,24.97
2019-02-19T10:44:51.309Z,22.87
2019-02-19T10:47:19.432Z,23.10
2019-02-19T10:49:47.599Z,22.90
2019-02-19T10:52:15.621Z,23.43
2019-02-19T10:54:44.359Z,23.70
2019-02-19T10:57:12.413Z,22.50
2019-02-19T10:59:40.536Z,23.07
2019-02-19T11:02:09.072Z,22.33
2019-02-19T11:04:37.283Z,23.63
2019-02-19T11:07:05.354Z,23.30
2019-02-19T11:09:33.452Z,24.40
2019-02-19T11:12:01.476Z,21.20
2019-02-19T11:14:29.487Z,22.60
2019-02-19T11:16:57.659Z,21.97
2019-02-19T11:19:25.766Z,21.03
2019-02-19T11:21:53.785Z,20.27
2019-02-19T11:24:21.863Z,20.77
2019-02-19T11:26:51.122Z,20.30
2019-02-19T11:29:19.178Z,19.70
2019-02-19T11:31:47.336Z,19.33
2019-02-19T11:34:15.344Z,20.53
2019-02-19T11:36:43.346Z,23.10
2019-02-19T11:39:11.387Z,19.73
2019-02-19T11:41:39.421Z,20.33
2019-02-19T11:44:07.476Z,19.43
2019-02-19T11:46:35.555Z,18.73
2019-02-19T11:49:03.581Z,19.23
2019-02-19T11:51:31.603Z,20.10
2019-02-19T11:53:59.868Z,20.07
2019-02-19T11:56:27.858Z,19.37
2019-02-19T11:58:55.965Z,20.73
2019-02-19T12:01:25.135Z,21.57
2019-02-19T12:03:53.106Z,18.90
2019-02-19T12:06:21.214Z,19.00
2019-02-19T12:08:50.568Z,19.70
2019-02-19T12:11:18.624Z,20.67
2019-02-19T12:13:46.683Z,18.47
2019-02-19T12:16:18.864Z,19.37
2019-02-19T12:18:47.070Z,20.27
2019-02-19T12:21:15.440Z,21.83
2019-02-19T12:23:43.479Z,19.93
2019-02-19T12:26:11.548Z,19.33
2019-02-19T12:28:39.625Z,20.07
2019-02-19T12:31:07.634Z,20.77
2019-02-19T12:33:35.687Z,19.70
2019-02-19T12:36:05.355Z,20.10
2019-02-19T12:38:33.392Z,19.73
2019-02-19T12:41:01.814Z,18.63
2019-02-19T12:43:31.527Z,20.03
2019-02-19T12:45:59.509Z,19.60
2019-02-19T12:48:27.828Z,19.60
2019-02-19T12:50:55.924Z,20.23
2019-02-19T12:53:24.327Z,20.77
2019-02-19T12:55:52.866Z,21.17
2019-02-19T12:58:21.240Z,18.90
2019-02-19T13:00:50.058Z,19.83
2019-02-19T13:03:18.376Z,18.13
2019-02-19T13:05:46.656Z,18.20
2019-02-19T13:08:14.743Z,18.70
2019-02-19T13:10:42.910Z,17.73
2019-02-19T13:13:11.173Z,16.90
2019-02-19T13:15:39.644Z,17.43
2019-02-19T13:18:07.817Z,17.93
2019-02-19T13:20:37.981Z,19.00
2019-02-19T13:23:05.967Z,17.33
2019-02-19T13:25:34.078Z,16.40
2019-02-19T13:28:02.688Z,15.30
2019-02-19T13:30:31.554Z,16.53
2019-02-19T13:33:00.416Z,16.00
2019-02-19T13:35:29.052Z,16.20
2019-02-19T13:37:58.124Z,17.27
2019-02-19T13:40:27.656Z,16.70
2019-02-19T13:42:55.916Z,14.67
2019-02-19T13:45:23.963Z,16.00
2019-02-19T13:47:52.501Z,15.03
2019-02-19T13:50:20.829Z,15.20
2019-02-19T13:52:56.754Z,18.30
2019-02-19T13:55:28.387Z,15.30
2019-02-19T13:57:57.436Z,15.43
2019-02-19T14:00:26.427Z,15.00
2019-02-19T14:02:54.442Z,14.37
2019-02-19T14:05:22.607Z,15.07
2019-02-19T14:07:50.594Z,15.17
2019-02-19T14:10:18.927Z,16.07
2019-02-19T14:12:46.995Z,16.53
2019-02-19T14:15:40.237Z,15.63
2019-02-19T14:18:09.844Z,13.87
2019-02-19T14:21:12.575Z,16.10
2019-02-19T14:23:59.869Z,14.47
2019-02-19T14:26:45.233Z,14.63
2019-02-19T14:29:41.414Z,13.17
2019-02-19T14:32:40.797Z,13.03
2019-02-19T14:35:27.858Z,14.30
2019-02-19T14:38:14.139Z,12.80
2019-02-19T14:41:19.416Z,12.40
2019-02-19T14:44:05.297Z,11.83
2019-02-19T14:46:52.365Z,11.90
2019-02-19T14:49:46.970Z,12.00
2019-02-19T14:52:18.049Z,12.60
2019-02-19T14:55:10.954Z,10.87
2019-02-19T14:57:57.886Z,10.30
2019-02-19T15:00:56.998Z,9.80
2019-02-19T15:03:44.061Z,10.37
2019-02-19T15:06:32.869Z,11.27
2019-02-19T15:09:35.437Z,11.40
2019-02-19T15:12:29.305Z,11.27
2019-02-19T15:15:31.804Z,10.40
2019-02-19T15:18:21.831Z,9.50
2019-02-19T15:21:15.102Z,8.20
2019-02-19T15:24:01.036Z,8.17
2019-02-19T15:27:00.397Z,8.87
2019-02-19T15:29:59.463Z,9.17
2019-02-19T15:32:58.572Z,9.53
2019-02-19T15:35:54.382Z,13.17
2019-02-19T15:38:35.323Z,9.17
2019-02-19T15:41:14.292Z,10.00
2019-02-19T15:44:01.398Z,11.90
2019-02-19T15:46:39.652Z,8.13
2019-02-19T15:49:32.671Z,9.80
2019-02-19T15:52:25.830Z,9.28
2019-02-19T15:55:11.988Z,8.40
2019-02-19T15:58:04.822Z,8.93
2019-02-19T16:00:43.167Z,8.13
2019-02-19T16:03:27.158Z,9.20
2019-02-19T16:06:07.886Z,9.30
2019-02-19T16:08:55.258Z,9.73
2019-02-19T16:11:39.683Z,9.03
2019-02-19T16:14:24.600Z,8.10
2019-02-19T16:17:04.582Z,8.97
2019-02-19T16:19:56.929Z,8.27
2019-02-19T16:22:42.530Z,8.47
2019-02-19T16:25:36.351Z,7.73
2019-02-19T16:28:32.411Z,8.40
2019-02-19T16:31:19.414Z,7.23
2019-02-19T16:34:02.266Z,7.13
2019-02-19T16:36:55.992Z,9.30
2019-02-19T16:39:49.518Z,7.40
2019-02-19T16:42:50.626Z,7.83
2019-02-19T16:45:36.559Z,7.57
2019-02-19T16:48:21.924Z,7.27
2019-02-19T16:51:07.848Z,7.97
2019-02-19T16:54:09.977Z,6.83
2019-02-19T16:56:55.749Z,7.40
2019-02-19T16:59:49.175Z,6.97
2019-02-19T17:02:34.797Z,7.60
2019-02-19T17:05:37.317Z,7.47
2019-02-19T17:08:22.885Z,7.07
2019-02-19T17:11:10.736Z,7.40
2019-02-19T17:13:58.322Z,5.63
2019-02-19T17:16:44.029Z,7.20
2019-02-19T17:19:37.270Z,5.57
2019-02-19T17:22:13.544Z,6.17
2019-02-19T17:24:59.441Z,5.23
2019-02-19T17:27:36.547Z,5.60
2019-02-19T17:30:18.816Z,4.70
2019-02-19T17:32:54.624Z,4.53
2019-02-19T17:35:52.486Z,4.30
2019-02-19T17:38:42.142Z,4.30
2019-02-19T17:41:35.085Z,4.20
2019-02-19T17:44:32.353Z,6.23
2019-02-19T17:47:21.195Z,4.70
2019-02-19T17:50:08.243Z,4.53
2019-02-19T17:52:55.331Z,3.97
2019-02-19T17:55:40.896Z,4.57
2019-02-19T17:58:30.999Z,3.95
2019-02-19T18:01:10.367Z,3.97
2019-02-19T18:04:03.560Z,4.20
2019-02-19T18:07:00.006Z,4.47
2019-02-19T18:09:44.628Z,3.60
2019-02-19T18:12:30.221Z,3.83
2019-02-19T18:15:25.578Z,4.40
2019-02-19T18:18:15.434Z,4.10
2019-02-19T18:20:47.413Z,4.83
2019-02-19T18:23:13.390Z,3.70
2019-02-19T18:25:46.900Z,4.50
2019-02-19T18:28:16.744Z,3.50
2019-02-19T18:30:44.930Z,4.53
2019-02-19T18:33:13.188Z,3.33
2019-02-19T18:35:41.312Z,3.77
2019-02-19T18:38:09.389Z,4.10
2019-02-19T18:40:37.448Z,4.30
2019-02-19T18:43:05.674Z,4.97
2019-02-19T18:45:33.997Z,4.77
2019-02-19T18:48:04.919Z,4.50
2019-02-19T18:50:33.352Z,4.50
2019-02-19T18:53:02.112Z,4.13
2019-02-19T18:55:31.336Z,5.20
2019-02-19T18:58:00.016Z,4.27
2019-02-19T19:00:28.129Z,4.20
2019-02-19T19:02:57.023Z,4.30
2019-02-19T19:05:26.389Z,4.40
2019-02-19T19:07:54.871Z,4.27
2019-02-19T19:10:24.252Z,6.13
2019-02-19T19:12:53.482Z,5.10
2019-02-19T19:15:22.265Z,4.23
2019-02-19T19:17:53.151Z,3.93
2019-02-19T19:20:21.967Z,6.07
2019-02-19T19:22:50.077Z,4.13
2019-02-19T19:25:18.182Z,4.10
2019-02-19T19:27:46.306Z,3.87
2019-02-19T19:30:14.775Z,4.80
2019-02-19T19:32:43.350Z,5.17
2019-02-19T19:35:11.449Z,4.00
2019-02-19T19:37:39.535Z,4.60
2019-02-19T19:40:07.735Z,3.80
2019-02-19T19:42:35.741Z,5.30
2019-02-19T19:45:03.880Z,6.03
2019-02-19T19:47:31.957Z,7.60
2019-02-19T19:50:00.207Z,8.40
2019-02-19T19:52:28.304Z,8.23
2019-02-19T19:54:56.426Z,8.90
2019-02-19T19:57:24.498Z,9.30
2019-02-19T19:59:53.661Z,9.08
2019-02-19T20:02:21.687Z,7.17
2019-02-19T20:04:50.051Z,5.77
2019-02-19T20:07:18.131Z,5.87
2019-02-19T20:09:46.529Z,5.40
2019-02-19T20:12:14.601Z,7.10
2019-02-19T20:14:42.743Z,6.97
2019-02-19T20:17:10.784Z,7.67
2019-02-19T20:19:38.967Z,7.60
2019-02-19T20:22:07.299Z,7.63
2019-02-19T20:24:35.503Z,9.77
2019-02-19T20:27:03.658Z,8.70
2019-02-19T20:29:31.704Z,8.43
2019-02-19T20:32:00.285Z,8.95
2019-02-19T20:34:28.461Z,8.17
2019-02-19T20:36:56.847Z,7.83
2019-02-19T20:39:25.061Z,8.00
2019-02-19T20:41:53.366Z,9.23
2019-02-19T20:44:21.417Z,8.87
2019-02-19T20:46:49.533Z,8.80
2019-02-19T20:49:51.930Z,8.93
2019-02-19T20:52:20.270Z,10.00
2019-02-19T20:54:48.390Z,10.33
2019-02-19T20:57:17.369Z,10.33
2019-02-19T20:59:45.733Z,10.33
2019-02-19T21:02:13.876Z,10.33
2019-02-19T21:04:42.044Z,9.53
2019-02-19T21:07:25.184Z,9.17
2019-02-19T21:09:53.313Z,7.60
2019-02-19T21:12:21.484Z,10.50
2019-02-19T21:14:49.488Z,8.70
2019-02-19T21:17:17.607Z,7.93
2019-02-19T21:19:45.687Z,6.30
2019-02-19T21:22:13.779Z,6.23
2019-02-19T21:24:41.848Z,9.27
2019-02-19T21:27:10.040Z,3.43
2019-02-19T21:29:38.339Z,4.33
2019-02-19T21:32:06.629Z,6.00
2019-02-19T21:34:35.087Z,2.43
2019-02-19T21:37:03.347Z,4.10
2019-02-19T21:39:32.731Z,3.10
2019-02-19T21:42:03.627Z,2.80
2019-02-19T21:44:32.279Z,2.80
2019-02-19T21:47:03.060Z,11.40
2019-02-19T21:49:31.943Z,5.67
2019-02-19T21:52:00.291Z,3.23
2019-02-19T21:54:31.939Z,3.23
2019-02-19T21:57:01.446Z,19.12
2019-02-19T21:59:31.480Z,6.67
2019-02-19T22:01:59.628Z,5.57
2019-02-19T22:04:28.728Z,3.67
2019-02-19T22:06:56.804Z,2.97
2019-02-19T22:09:25.274Z,3.33
2019-02-19T22:11:54.233Z,3.80
2019-02-19T22:14:23.997Z,4.20
2019-02-19T22:16:53.029Z,4.03
2019-02-19T22:19:22.676Z,3.53
2019-02-19T22:22:09.742Z,3.30
2019-02-19T22:24:39.330Z,4.27
2019-02-19T22:27:08.554Z,4.17
2019-02-19T22:29:37.868Z,4.60
2019-02-19T22:32:07.147Z,4.83
2019-02-19T22:34:36.628Z,5.83
2019-02-19T22:37:05.762Z,6.13
2019-02-19T22:39:33.874Z,6.37
2019-02-19T22:42:02.850Z,7.27
2019-02-19T22:44:33.224Z,7.83
2019-02-19T22:47:03.024Z,7.17
2019-02-19T22:49:31.090Z,7.97
2019-02-19T22:51:59.207Z,8.57
2019-02-19T22:54:42.549Z,9.07
2019-02-19T22:57:10.910Z,9.67
2019-02-19T22:59:39.451Z,10.30
2019-02-19T23:02:14.253Z,10.57
2019-02-19T23:04:42.592Z,10.30
2019-02-19T23:07:10.658Z,10.27
2019-02-19T23:09:39.074Z,10.60
2019-02-19T23:12:07.150Z,11.07
2019-02-19T23:14:35.297Z,10.53
2019-02-19T23:17:03.740Z,10.97
2019-02-19T23:19:32.057Z,11.70
2019-02-19T23:22:00.151Z,11.37
2019-02-19T23:24:28.192Z,10.40
2019-02-19T23:26:56.692Z,10.87
2019-02-19T23:29:25.176Z,9.70
2019-02-19T23:31:53.640Z,11.27
2019-02-19T23:34:22.316Z,10.27
2019-02-19T23:36:55.598Z,10.23
2019-02-19T23:39:23.637Z,10.03
2019-02-19T23:41:51.704Z,10.63
2019-02-19T23:44:19.716Z,9.50
2019-02-19T23:46:50.123Z,9.27
2019-02-19T23:49:18.191Z,10.27
2019-02-19T23:51:46.182Z,11.27
2019-02-19T23:54:14.199Z,9.93
2019-02-19T23:56:42.207Z,10.60
2019-02-19T23:59:10.259Z,9.30
